Time;durP1;ratioP1;P1;durP2;ratioP2;P2;SDS_P1;SDS_P2;PMS_P1;PMS_P2;Temp;Humidity;BMP_temperature;BMP_pressure;BME280_temperature;BME280_humidity;BME280_pressure;Samples;Min_cycle;Max_cycle;Signal;HPM_P1;HPM_P2
2021/07/18 00:00:32;;;;;;;7.93;3.67;;;18.90;99.90;;;;;;4978082;28;20193;-74
2021/07/18 00:02:57;;;;;;;6.27;3.83;;;18.90;99.90;;;;;;4945369;29;20216;-74
2021/07/18 00:05:26;;;;;;;4.50;3.97;;;19.00;99.90;;;;;;4975411;28;20200;-74
2021/07/18 00:07:52;;;;;;;5.20;4.00;;;18.90;99.90;;;;;;4978228;28;20213;-74
2021/07/18 00:10:17;;;;;;;4.27;3.83;;;18.90;99.90;;;;;;4978257;28;20484;-74
2021/07/18 00:12:43;;;;;;;4.97;4.27;;;18.90;99.90;;;;;;4960730;28;20248;-75
2021/07/18 00:15:11;;;;;;;7.23;4.00;;;18.90;99.90;;;;;;4960902;28;20188;-73
2021/07/18 00:17:37;;;;;;;6.90;3.97;;;18.80;99.90;;;;;;4977863;28;20169;-75
2021/07/18 00:20:12;;;;;;;4.03;3.20;;;18.80;99.90;;;;;;4995836;28;20453;-73
2021/07/18 00:22:38;;;;;;;6.10;3.73;;;18.70;99.90;;;;;;4980310;28;20835;-74
2021/07/18 00:25:06;;;;;;;5.33;3.47;;;18.70;99.90;;;;;;4979865;28;20424;-74
2021/07/18 00:27:32;;;;;;;7.10;3.63;;;18.70;99.90;;;;;;4979692;28;20187;-75
2021/07/18 00:29:57;;;;;;;4.13;3.63;;;18.70;99.90;;;;;;4979912;28;20815;-74
2021/07/18 00:32:23;;;;;;;5.50;4.10;;;18.70;99.90;;;;;;4996657;28;20467;-74
2021/07/18 00:34:48;;;;;;;5.27;3.37;;;18.70;99.90;;;;;;4997206;28;20185;-75
2021/07/18 00:37:14;;;;;;;4.00;3.40;;;18.80;99.90;;;;;;4997201;28;20172;-74
2021/07/18 00:39:40;;;;;;;4.07;3.67;;;18.80;99.90;;;;;;4979594;28;20176;-75
2021/07/18 00:42:06;;;;;;;5.00;3.70;;;18.80;99.90;;;;;;4980059;28;20188;-74
2021/07/18 00:44:31;;;;;;;4.73;4.10;;;18.90;99.90;;;;;;4997186;28;20172;-75
2021/07/18 00:46:57;;;;;;;6.33;4.63;;;18.80;99.90;;;;;;4997604;28;20172;-75
2021/07/18 00:49:22;;;;;;;5.40;4.50;;;18.80;99.90;;;;;;4996946;28;20688;-75
2021/07/18 00:51:48;;;;;;;4.50;4.10;;;18.70;99.90;;;;;;4978489;28;20199;-75
2021/07/18 00:54:15;;;;;;;3.87;3.57;;;18.70;99.90;;;;;;4978725;28;20212;-75
2021/07/18 00:56:41;;;;;;;5.00;3.80;;;18.70;99.90;;;;;;4997308;28;20514;-74
2021/07/18 00:59:07;;;;;;;4.65;4.25;;;18.80;99.90;;;;;;4996133;28;20499;-75
2021/07/18 01:01:33;;;;;;;5.53;4.30;;;18.80;99.90;;;;;;4996956;28;20578;-75
2021/07/18 01:03:59;;;;;;;5.43;4.10;;;18.80;99.90;;;;;;4992048;28;20556;-73
2021/07/18 01:06:25;;;;;;;5.37;3.70;;;18.70;99.90;;;;;;4978772;28;20404;-74
2021/07/18 01:08:51;;;;;;;5.03;3.73;;;18.70;99.90;;;;;;4978839;28;20412;-74
2021/07/18 01:11:17;;;;;;;5.67;4.37;;;18.60;99.90;;;;;;4979019;28;20197;-75
2021/07/18 01:13:42;;;;;;;4.73;4.33;;;18.50;99.90;;;;;;4978389;28;20515;-73
2021/07/18 01:16:08;;;;;;;6.80;4.73;;;18.50;99.90;;;;;;4976916;28;20173;-74
2021/07/18 01:18:34;;;;;;;6.73;3.73;;;18.50;99.90;;;;;;4976842;28;20169;-74
2021/07/18 01:21:00;;;;;;;8.00;4.40;;;18.50;99.90;;;;;;4977075;28;20184;-74
2021/07/18 01:23:26;;;;;;;4.37;3.97;;;18.50;99.90;;;;;;4976847;28;20693;-74
2021/07/18 01:25:55;;;;;;;5.33;3.80;;;18.60;99.90;;;;;;4977626;28;20412;-74
2021/07/18 01:28:21;;;;;;;6.43;4.30;;;18.50;99.90;;;;;;4977208;28;20419;-74
2021/07/18 01:30:48;;;;;;;4.70;4.30;;;18.60;99.90;;;;;;4977018;28;20518;-74
2021/07/18 01:33:14;;;;;;;4.50;4.00;;;18.50;99.90;;;;;;4977007;28;20782;-73
2021/07/18 01:35:39;;;;;;;4.17;3.77;;;18.50;99.90;;;;;;4976456;28;20531;-74
2021/07/18 01:38:08;;;;;;;4.77;4.17;;;18.50;99.90;;;;;;4977610;28;20419;-74
2021/07/18 01:40:34;;;;;;;6.72;4.72;;;18.50;99.90;;;;;;4977951;28;20452;-74
2021/07/18 01:42:59;;;;;;;5.93;4.13;;;18.50;99.90;;;;;;4977909;28;20235;-74
2021/07/18 01:45:25;;;;;;;4.20;3.90;;;18.50;99.90;;;;;;4980913;28;20243;-74
2021/07/18 01:47:51;;;;;;;5.37;4.77;;;18.50;99.90;;;;;;4989253;28;20200;-74
2021/07/18 01:50:17;;;;;;;6.80;4.53;;;18.40;99.90;;;;;;4986031;28;20267;-74
2021/07/18 01:52:43;;;;;;;6.43;4.33;;;18.40;99.90;;;;;;4986960;28;20197;-72
2021/07/18 01:55:10;;;;;;;5.00;4.33;;;18.30;99.90;;;;;;4989253;28;20435;-73
2021/07/18 01:57:36;;;;;;;5.83;4.73;;;18.30;99.90;;;;;;4989727;28;20409;-73
2021/07/18 02:00:04;;;;;;;4.70;4.30;;;18.30;99.90;;;;;;4987852;28;20527;-72
2021/07/18 02:02:29;;;;;;;5.67;4.63;;;18.20;99.90;;;;;;4968466;28;20273;-72
2021/07/18 02:04:55;;;;;;;4.50;4.10;;;18.20;99.90;;;;;;4995753;28;20443;-74
2021/07/18 02:07:20;;;;;;;5.17;4.20;;;18.20;99.90;;;;;;4997002;28;20547;-73
2021/07/18 02:09:46;;;;;;;4.70;4.30;;;18.20;99.90;;;;;;4996465;28;20193;-73
2021/07/18 02:12:11;;;;;;;6.20;4.10;;;18.20;99.90;;;;;;4994142;28;20197;-73
2021/07/18 02:14:38;;;;;;;4.53;4.13;;;18.20;99.90;;;;;;4996397;28;20646;-73
2021/07/18 02:17:05;;;;;;;5.50;4.40;;;18.20;99.90;;;;;;4996881;28;20169;-73
2021/07/18 02:19:31;;;;;;;5.23;4.37;;;18.20;99.90;;;;;;4993729;28;20577;-73
2021/07/18 02:21:58;;;;;;;6.37;5.00;;;18.20;99.90;;;;;;4994011;28;20408;-72
2021/07/18 02:24:26;;;;;;;5.43;4.90;;;18.10;99.90;;;;;;4995456;28;20416;-73
2021/07/18 02:26:55;;;;;;;6.30;4.37;;;18.10;99.90;;;;;;4995985;28;20425;-73
2021/07/18 02:29:22;;;;;;;5.57;4.63;;;18.00;99.90;;;;;;4996343;28;20400;-74
2021/07/18 02:31:47;;;;;;;4.97;4.47;;;17.90;99.90;;;;;;4995899;28;20528;-74
2021/07/18 02:34:13;;;;;;;8.63;5.03;;;17.80;99.90;;;;;;4996246;28;20411;-75
2021/07/18 02:36:38;;;;;;;7.13;4.60;;;17.80;99.90;;;;;;4995216;28;20180;-72
2021/07/18 02:39:04;;;;;;;5.40;4.80;;;17.70;99.90;;;;;;4996270;28;20191;-73
2021/07/18 02:41:34;;;;;;;6.17;4.83;;;17.70;99.90;;;;;;4995500;28;20191;-73
2021/07/18 02:44:00;;;;;;;7.00;4.37;;;17.70;99.90;;;;;;4986726;28;20459;-72
2021/07/18 02:46:26;;;;;;;6.30;4.23;;;17.70;99.90;;;;;;4979334;28;20451;-73
2021/07/18 02:48:51;;;;;;;4.60;4.20;;;17.60;99.90;;;;;;4977328;28;20483;-73
2021/07/18 02:51:17;;;;;;;5.47;4.93;;;17.50;99.90;;;;;;4976503;28;20212;-72
2021/07/18 02:53:42;;;;;;;6.67;4.40;;;17.50;99.90;;;;;;4984053;28;20197;-73
2021/07/18 02:56:08;;;;;;;4.97;4.50;;;17.50;99.90;;;;;;4985378;28;20533;-73
2021/07/18 02:58:33;;;;;;;4.97;4.47;;;17.50;99.90;;;;;;4983683;28;20522;-73
2021/07/18 03:00:59;;;;;;;6.03;4.70;;;17.50;99.90;;;;;;4978160;28;20184;-73
2021/07/18 03:03:25;;;;;;;7.07;5.20;;;17.40;99.90;;;;;;4976852;28;20204;-73
2021/07/18 03:05:50;;;;;;;6.67;5.97;;;17.40;99.90;;;;;;4965042;28;20728;-74
2021/07/18 03:08:16;;;;;;;9.20;5.00;;;17.40;99.90;;;;;;4984567;28;20164;-73
2021/07/18 03:10:41;;;;;;;4.50;4.10;;;17.40;99.90;;;;;;4980405;28;20196;-72
2021/07/18 03:13:07;;;;;;;6.73;4.57;;;17.40;99.90;;;;;;4976765;28;20204;-73
2021/07/18 03:15:32;;;;;;;6.10;4.60;;;17.30;99.90;;;;;;4977683;28;20279;-73
2021/07/18 03:17:58;;;;;;;9.83;5.23;;;17.30;99.90;;;;;;4976710;28;20268;-72
2021/07/18 03:20:23;;;;;;;5.87;5.30;;;17.30;99.90;;;;;;4975453;28;20179;-72
2021/07/18 03:22:49;;;;;;;5.27;4.73;;;17.20;99.90;;;;;;4974924;28;20251;-72
2021/07/18 03:25:17;;;;;;;6.37;4.57;;;17.20;99.90;;;;;;4979142;28;20196;-73
2021/07/18 03:27:46;;;;;;;8.53;4.80;;;17.20;99.90;;;;;;4978336;28;20408;-73
2021/07/18 03:30:14;;;;;;;5.80;4.70;;;17.20;99.90;;;;;;4975341;28;20456;-73
2021/07/18 03:32:40;;;;;;;4.93;4.50;;;17.20;99.90;;;;;;4974867;28;20436;-73
2021/07/18 03:35:08;;;;;;;5.07;4.50;;;17.20;99.90;;;;;;4974888;28;20417;-72
2021/07/18 03:37:35;;;;;;;4.67;4.23;;;17.20;99.90;;;;;;4974518;28;20897;-73
2021/07/18 03:40:00;;;;;;;4.73;4.33;;;17.30;99.90;;;;;;4973073;28;20926;-73
2021/07/18 03:42:26;;;;;;;5.93;4.10;;;17.30;99.90;;;;;;4974372;28;20468;-73
2021/07/18 03:44:51;;;;;;;5.50;4.50;;;17.40;99.90;;;;;;4975449;28;20220;-73
2021/07/18 03:47:17;;;;;;;6.63;4.47;;;17.40;99.90;;;;;;4975696;28;20200;-73
2021/07/18 03:49:43;;;;;;;4.73;4.27;;;17.50;99.90;;;;;;4975171;28;20561;-74
2021/07/18 03:52:08;;;;;;;8.60;5.40;;;17.50;99.90;;;;;;4975181;28;20438;-73
2021/07/18 03:54:34;;;;;;;6.27;5.00;;;17.60;99.90;;;;;;4974448;28;20201;-73
2021/07/18 03:56:59;;;;;;;6.67;4.50;;;17.60;99.90;;;;;;4975205;28;20173;-73
2021/07/18 03:59:26;;;;;;;5.83;4.60;;;17.60;99.90;;;;;;4976496;28;20185;-73
2021/07/18 04:01:51;;;;;;;5.50;3.97;;;17.50;99.90;;;;;;4976214;28;20177;-73
2021/07/18 04:04:17;;;;;;;6.50;4.40;;;17.40;99.90;;;;;;4975357;28;20486;-73
2021/07/18 04:06:42;;;;;;;5.77;4.53;;;17.30;99.90;;;;;;4974776;28;20209;-73
2021/07/18 04:09:08;;;;;;;7.73;5.10;;;17.30;99.90;;;;;;4975064;28;20181;-73
2021/07/18 04:11:33;;;;;;;7.33;5.50;;;17.10;99.90;;;;;;4974459;28;20211;-73
2021/07/18 04:13:59;;;;;;;9.40;5.40;;;17.10;99.90;;;;;;4974120;28;20548;-73
2021/07/18 04:16:25;;;;;;;7.20;5.50;;;16.90;99.90;;;;;;4974096;28;20256;-73
2021/07/18 04:18:50;;;;;;;6.73;5.30;;;16.90;99.90;;;;;;4956820;28;20232;-73
2021/07/18 04:21:19;;;;;;;7.00;5.20;;;16.90;99.90;;;;;;4973661;28;20176;-73
2021/07/18 04:23:45;;;;;;;7.63;5.17;;;16.90;99.90;;;;;;4973948;28;20197;-73
2021/07/18 04:26:11;;;;;;;6.72;4.88;;;17.00;99.90;;;;;;4975151;28;20431;-73
2021/07/18 04:28:36;;;;;;;6.13;4.83;;;17.00;99.90;;;;;;4977741;28;20638;-73
2021/07/18 04:31:02;;;;;;;5.40;4.90;;;17.10;99.90;;;;;;4977262;28;20685;-73
2021/07/18 04:33:27;;;;;;;6.77;5.37;;;17.00;99.90;;;;;;4959632;28;20215;-73
2021/07/18 04:35:53;;;;;;;5.10;4.60;;;17.00;99.90;;;;;;4959829;28;20185;-73
2021/07/18 04:38:19;;;;;;;7.03;5.33;;;17.00;99.90;;;;;;4977285;28;20165;-71
2021/07/18 04:40:44;;;;;;;7.07;4.57;;;17.00;99.90;;;;;;4977068;28;20348;-71
2021/07/18 04:43:10;;;;;;;10.50;6.00;;;17.10;99.90;;;;;;4977045;28;20561;-71
2021/07/18 04:45:35;;;;;;;6.03;5.43;;;17.00;99.90;;;;;;4976861;28;20650;-72
2021/07/18 04:48:01;;;;;;;5.60;5.10;;;17.00;99.90;;;;;;4976851;28;20179;-73
2021/07/18 04:50:27;;;;;;;6.30;5.33;;;17.00;99.90;;;;;;4977098;28;20543;-72
2021/07/18 04:52:53;;;;;;;6.83;4.53;;;17.00;99.90;;;;;;4976902;28;20244;-73
2021/07/18 04:55:20;;;;;;;6.57;5.87;;;17.00;99.90;;;;;;4976744;28;20483;-72
2021/07/18 04:57:46;;;;;;;5.97;5.37;;;17.10;99.90;;;;;;4959772;28;20416;-73
2021/07/18 05:00:14;;;;;;;6.60;5.40;;;17.20;99.90;;;;;;4977187;28;20936;-72
2021/07/18 05:02:40;;;;;;;7.60;6.03;;;17.30;99.90;;;;;;4976721;28;20488;-73
2021/07/18 05:05:13;;;;;;;6.43;5.80;;;17.30;99.90;;;;;;4976829;28;20428;-73
2021/07/18 05:07:48;;;;;;;7.43;6.17;;;17.20;99.90;;;;;;4977161;28;20189;-73
2021/07/18 05:10:14;;;;;;;7.97;6.45;;;17.10;99.90;;;;;;4976488;28;20430;-73
2021/07/18 05:12:40;;;;;;;6.40;5.30;;;17.10;99.90;;;;;;4977793;28;20243;-72
2021/07/18 05:15:06;;;;;;;7.10;6.40;;;17.20;99.90;;;;;;4959907;28;20413;-72
2021/07/18 05:17:32;;;;;;;9.20;5.80;;;17.20;99.90;;;;;;4978780;28;20537;-73
2021/07/18 05:19:58;;;;;;;6.90;5.80;;;17.20;99.90;;;;;;4965270;28;20415;-73
2021/07/18 05:22:27;;;;;;;6.00;5.40;;;17.20;99.90;;;;;;4979489;28;20181;-73
2021/07/18 05:24:53;;;;;;;8.87;5.67;;;17.30;99.90;;;;;;4958935;28;20416;-73
2021/07/18 05:27:19;;;;;;;6.50;5.10;;;17.40;99.90;;;;;;4976591;28;20407;-73
2021/07/18 05:29:45;;;;;;;6.17;5.30;;;17.50;99.90;;;;;;4976474;28;20173;-73
2021/07/18 05:32:10;;;;;;;7.73;5.13;;;17.70;99.90;;;;;;4976062;28;20526;-73
2021/07/18 05:34:37;;;;;;;6.47;5.37;;;17.70;99.90;;;;;;4976773;28;20173;-75
2021/07/18 05:37:02;;;;;;;7.80;5.37;;;17.80;99.90;;;;;;4977802;28;20271;-73
2021/07/18 05:39:28;;;;;;;6.07;5.20;;;17.80;99.90;;;;;;4977181;28;20943;-73
2021/07/18 05:41:55;;;;;;;10.10;5.83;;;18.00;99.90;;;;;;4959666;28;20538;-75
2021/07/18 05:44:21;;;;;;;8.90;5.77;;;18.00;99.90;;;;;;4977592;28;20165;-74
2021/07/18 05:46:46;;;;;;;6.87;5.60;;;18.10;99.90;;;;;;4976998;28;20753;-73
2021/07/18 05:49:12;;;;;;;6.43;5.70;;;18.10;99.90;;;;;;4976779;28;20169;-73
2021/07/18 05:51:37;;;;;;;6.80;5.63;;;18.20;99.90;;;;;;4976595;28;20192;-72
2021/07/18 05:54:03;;;;;;;11.07;5.67;;;18.20;99.90;;;;;;4976512;28;20189;-74
2021/07/18 05:56:28;;;;;;;6.03;5.30;;;18.30;99.90;;;;;;4976436;28;20173;-74
2021/07/18 05:58:54;;;;;;;5.77;4.90;;;18.30;99.90;;;;;;4976112;28;20173;-74
2021/07/18 06:01:19;;;;;;;6.13;5.10;;;18.30;99.90;;;;;;4976124;28;20176;-74
2021/07/18 06:03:45;;;;;;;7.70;5.03;;;18.30;99.90;;;;;;4975537;28;20228;-74
2021/07/18 06:06:10;;;;;;;6.03;5.33;;;18.20;99.90;;;;;;4975741;28;20172;-74
2021/07/18 06:08:36;;;;;;;8.67;4.80;;;18.10;99.90;;;;;;4975874;28;20173;-73
2021/07/18 06:11:02;;;;;;;6.03;5.10;;;18.10;99.90;;;;;;4958547;28;20205;-73
2021/07/18 06:13:28;;;;;;;6.40;5.37;;;18.20;99.90;;;;;;4976154;28;20487;-73
2021/07/18 06:15:53;;;;;;;5.40;4.40;;;18.20;99.90;;;;;;4975678;28;20231;-73
2021/07/18 06:18:19;;;;;;;7.63;6.07;;;18.20;99.90;;;;;;4975565;28;20173;-74
2021/07/18 06:20:44;;;;;;;7.90;5.73;;;18.30;99.90;;;;;;4958189;28;20181;-74
2021/07/18 06:23:10;;;;;;;7.10;4.97;;;18.20;99.90;;;;;;4975587;28;20199;-73
2021/07/18 06:25:35;;;;;;;6.20;4.97;;;18.20;99.90;;;;;;4975762;28;20173;-74
2021/07/18 06:28:01;;;;;;;5.30;4.20;;;18.30;99.90;;;;;;4976251;28;20296;-74
2021/07/18 06:30:26;;;;;;;5.00;4.33;;;18.40;99.90;;;;;;4977047;28;20204;-72
2021/07/18 06:32:52;;;;;;;8.80;5.10;;;18.50;99.90;;;;;;4975320;28;20215;-72
2021/07/18 06:35:17;;;;;;;6.00;4.53;;;18.50;99.90;;;;;;4975306;28;20193;-73
2021/07/18 06:37:43;;;;;;;7.27;4.40;;;18.60;99.90;;;;;;4975670;28;20165;-73
2021/07/18 06:40:19;;;;;;;6.97;4.90;;;18.60;99.90;;;;;;4961478;28;20181;-74
2021/07/18 06:42:45;;;;;;;3.93;3.53;;;18.70;99.90;;;;;;4940756;29;20215;-76
2021/07/18 06:45:11;;;;;;;4.65;4.00;;;18.70;99.90;;;;;;4955657;28;20419;-74
2021/07/18 06:47:37;;;;;;;4.70;3.60;;;18.80;99.90;;;;;;4955303;28;20233;-74
2021/07/18 06:50:03;;;;;;;6.33;3.93;;;18.80;99.90;;;;;;4939586;29;20417;-74
2021/07/18 06:52:29;;;;;;;5.63;3.77;;;18.80;99.90;;;;;;4939275;29;20808;-75
2021/07/18 06:54:54;;;;;;;6.10;3.53;;;18.90;99.90;;;;;;4956056;28;20413;-74
2021/07/18 06:57:21;;;;;;;4.23;3.57;;;18.90;99.90;;;;;;4955944;29;20165;-73
2021/07/18 06:59:47;;;;;;;3.50;3.20;;;19.10;99.90;;;;;;4956299;28;20177;-73
2021/07/18 07:02:14;;;;;;;3.40;3.03;;;19.10;99.90;;;;;;4939703;28;20437;-73
2021/07/18 07:04:39;;;;;;;5.27;3.70;;;19.20;99.90;;;;;;4974832;28;20447;-74
2021/07/18 07:07:05;;;;;;;3.73;3.27;;;19.20;99.90;;;;;;4975888;28;20413;-74
2021/07/18 07:09:33;;;;;;;3.40;3.10;;;19.30;99.90;;;;;;4975164;28;20255;-73
2021/07/18 07:11:59;;;;;;;2.47;2.27;;;19.40;99.90;;;;;;4975009;28;20670;-73
2021/07/18 07:14:24;;;;;;;3.50;3.07;;;19.40;99.90;;;;;;4974680;28;20409;-73
2021/07/18 07:16:50;;;;;;;3.50;3.00;;;19.50;99.90;;;;;;4975473;28;20177;-72
2021/07/18 07:19:16;;;;;;;2.97;2.40;;;19.60;99.90;;;;;;4975754;28;20524;-72
2021/07/18 07:21:41;;;;;;;3.00;2.73;;;19.70;99.90;;;;;;4957409;28;20212;-73
2021/07/18 07:24:07;;;;;;;3.03;2.73;;;19.80;99.90;;;;;;4974770;28;20700;-72
2021/07/18 07:26:33;;;;;;;5.67;2.40;;;19.80;99.90;;;;;;4957994;28;20182;-73
2021/07/18 07:28:59;;;;;;;2.53;2.33;;;19.90;99.90;;;;;;4975864;28;20420;-73
2021/07/18 07:31:25;;;;;;;2.40;2.20;;;19.90;99.90;;;;;;4975786;28;20478;-73
2021/07/18 07:33:50;;;;;;;4.03;2.10;;;19.90;99.90;;;;;;4974947;28;20255;-73
2021/07/18 07:36:20;;;;;;;4.60;2.90;;;20.00;99.90;;;;;;4975004;28;20224;-73
2021/07/18 07:38:46;;;;;;;3.00;2.27;;;20.00;99.90;;;;;;4974266;28;20185;-73
2021/07/18 07:41:12;;;;;;;3.67;2.47;;;20.20;99.90;;;;;;4974681;28;20416;-74
2021/07/18 07:43:38;;;;;;;2.93;2.20;;;20.20;99.90;;;;;;4974784;28;20189;-74
2021/07/18 07:46:04;;;;;;;2.70;2.50;;;20.30;99.90;;;;;;4958135;28;20528;-73
2021/07/18 07:48:30;;;;;;;2.60;2.40;;;20.30;99.90;;;;;;4955435;29;20965;-74
2021/07/18 07:50:58;;;;;;;6.77;2.60;;;20.40;99.90;;;;;;4955352;29;20457;-74
2021/07/18 07:53:25;;;;;;;4.43;2.73;;;20.60;99.90;;;;;;4937831;29;20284;-75
2021/07/18 07:55:51;;;;;;;2.37;2.10;;;20.70;99.90;;;;;;4955029;29;20409;-74
2021/07/18 07:58:17;;;;;;;4.00;2.40;;;20.80;99.90;;;;;;4955857;28;20432;-74
2021/07/18 08:00:43;;;;;;;3.30;2.50;;;20.90;99.90;;;;;;4959952;28;20231;-73
2021/07/18 08:03:09;;;;;;;4.23;2.80;;;20.90;99.90;;;;;;4978265;28;20435;-74
2021/07/18 08:05:35;;;;;;;3.33;3.03;;;20.90;99.90;;;;;;4977582;28;20591;-74
2021/07/18 08:08:02;;;;;;;2.97;2.47;;;20.90;99.90;;;;;;4960910;28;20464;-74
2021/07/18 08:10:28;;;;;;;4.15;3.03;;;20.90;99.90;;;;;;4960334;28;20434;-74
2021/07/18 08:12:54;;;;;;;3.60;3.27;;;21.00;99.90;;;;;;4978790;28;20197;-74
2021/07/18 08:15:24;;;;;;;3.17;2.93;;;21.10;99.90;;;;;;4961115;28;20440;-74
2021/07/18 08:17:50;;;;;;;2.53;2.33;;;21.20;99.90;;;;;;4958944;29;20427;-74
2021/07/18 08:20:21;;;;;;;4.67;3.60;;;21.40;99.90;;;;;;4966331;28;20976;-74
2021/07/18 08:22:51;;;;;;;4.53;2.80;;;21.60;99.90;;;;;;4959595;28;20468;-72
2021/07/18 08:25:18;;;;;;;3.37;2.97;;;21.50;99.90;;;;;;4975783;28;20400;-74
2021/07/18 08:27:45;;;;;;;3.30;2.43;;;21.50;99.90;;;;;;4976188;28;20471;-73
2021/07/18 08:30:11;;;;;;;5.50;3.30;;;21.40;99.90;;;;;;4959382;28;21004;-74
2021/07/18 08:32:37;;;;;;;3.67;2.70;;;21.60;99.90;;;;;;4976839;28;20444;-75
2021/07/18 08:35:03;;;;;;;3.33;3.03;;;21.60;99.90;;;;;;4976495;28;20495;-75
2021/07/18 08:37:30;;;;;;;3.27;2.97;;;21.50;99.90;;;;;;4979448;28;20680;-74
2021/07/18 08:39:55;;;;;;;5.43;2.70;;;21.50;99.90;;;;;;4964390;28;20853;-74
2021/07/18 08:42:21;;;;;;;3.53;3.23;;;21.50;99.90;;;;;;4982126;28;20417;-74
2021/07/18 08:44:47;;;;;;;5.80;3.10;;;21.80;99.90;;;;;;4977350;28;20168;-74
2021/07/18 08:47:12;;;;;;;3.33;2.73;;;22.00;99.90;;;;;;4975945;28;20420;-73
2021/07/18 08:49:39;;;;;;;5.33;3.10;;;22.10;99.90;;;;;;4953252;28;20208;-74
2021/07/18 08:52:05;;;;;;;3.20;2.87;;;22.30;99.90;;;;;;4964823;28;20219;-74
2021/07/18 08:54:32;;;;;;;4.07;3.10;;;22.30;99.90;;;;;;4970232;28;20410;-74
2021/07/18 08:57:00;;;;;;;4.10;2.90;;;22.30;99.90;;;;;;4971783;28;20459;-74
2021/07/18 08:59:27;;;;;;;4.27;3.10;;;22.40;99.90;;;;;;4968258;28;20455;-73
2021/07/18 09:01:53;;;;;;;3.43;3.13;;;22.30;99.90;;;;;;4971212;28;20428;-74
2021/07/18 09:04:19;;;;;;;3.10;2.77;;;22.40;99.90;;;;;;4971603;28;20439;-74
2021/07/18 09:06:48;;;;;;;3.03;2.80;;;22.60;99.90;;;;;;4972435;28;20507;-73
2021/07/18 09:09:20;;;;;;;4.90;3.57;;;22.80;99.90;;;;;;4972335;28;20424;-74
2021/07/18 09:12:00;;;;;;;5.80;3.57;;;22.80;99.90;;;;;;4971415;28;20467;-74
2021/07/18 09:14:34;;;;;;;4.23;3.13;;;22.70;99.90;;;;;;4971706;28;20774;-73
2021/07/18 09:17:00;;;;;;;2.90;2.60;;;22.70;99.90;;;;;;4972630;28;20498;-73
2021/07/18 09:19:32;;;;;;;3.47;2.73;;;22.50;99.90;;;;;;4974389;28;20920;-73
2021/07/18 09:21:58;;;;;;;3.70;3.33;;;22.50;99.90;;;;;;4975172;28;20412;-73
2021/07/18 09:24:28;;;;;;;3.93;3.33;;;22.50;99.90;;;;;;4973655;28;20769;-73
2021/07/18 09:27:18;;;;;;;3.23;3.03;;;22.50;99.90;;;;;;4977526;28;20720;-74
2021/07/18 09:30:11;;;;;;;3.40;3.10;;;22.50;99.90;;;;;;4978677;28;20470;-74
2021/07/18 09:32:45;;;;;;;3.60;3.23;;;22.50;99.90;;;;;;4980369;28;20291;-72
2021/07/18 09:35:13;;;;;;;3.77;2.97;;;22.70;99.90;;;;;;4982536;28;20415;-74
2021/07/18 09:37:46;;;;;;;3.33;3.00;;;22.80;99.90;;;;;;4978907;28;20509;-72
2021/07/18 09:40:15;;;;;;;3.20;3.00;;;23.00;99.90;;;;;;4963156;28;20194;-74
2021/07/18 09:42:48;;;;;;;3.73;3.10;;;23.10;99.90;;;;;;4984403;28;20470;-73
2021/07/18 09:45:17;;;;;;;3.13;2.93;;;23.10;99.90;;;;;;4981498;28;20582;-73
2021/07/18 09:47:54;;;;;;;3.23;2.93;;;23.00;99.90;;;;;;4962674;28;20460;-73
2021/07/18 09:50:21;;;;;;;3.40;3.00;;;22.90;99.90;;;;;;4979342;28;20471;-73
2021/07/18 09:52:49;;;;;;;3.27;2.97;;;23.00;99.90;;;;;;4979175;28;20451;-73
2021/07/18 09:55:22;;;;;;;4.20;3.10;;;23.10;99.90;;;;;;4978763;28;20511;-73
2021/07/18 09:57:52;;;;;;;4.23;3.73;;;23.10;99.90;;;;;;4944774;28;20494;-72
2021/07/18 10:00:20;;;;;;;4.47;2.63;;;23.30;99.90;;;;;;4979807;28;20478;-74
2021/07/18 10:02:46;;;;;;;4.20;2.90;;;23.40;99.90;;;;;;4987231;28;20452;-73
2021/07/18 10:05:24;;;;;;;3.23;2.93;;;23.40;99.90;;;;;;5013097;28;20458;-74
2021/07/18 10:07:50;;;;;;;3.40;3.10;;;23.40;99.90;;;;;;4982359;28;20202;-72
2021/07/18 10:10:15;;;;;;;3.40;2.90;;;23.30;99.80;;;;;;4989750;28;20459;-73
2021/07/18 10:12:42;;;;;;;3.40;3.10;;;23.30;99.90;;;;;;4990658;28;20463;-74
2021/07/18 10:15:09;;;;;;;5.20;3.60;;;23.30;99.90;;;;;;5004519;28;20201;-74
2021/07/18 10:17:34;;;;;;;3.30;3.00;;;23.30;99.90;;;;;;5010177;28;20425;-73
2021/07/18 10:20:00;;;;;;;3.60;3.30;;;23.30;99.90;;;;;;4989664;28;20427;-74
2021/07/18 10:22:26;;;;;;;3.30;3.00;;;23.40;99.90;;;;;;4993697;28;20192;-73
2021/07/18 10:24:54;;;;;;;3.87;3.40;;;23.40;99.90;;;;;;4992785;28;20168;-73
2021/07/18 10:27:21;;;;;;;3.37;2.93;;;23.40;99.90;;;;;;5009215;28;20519;-73
2021/07/18 10:29:48;;;;;;;4.00;3.70;;;23.40;99.90;;;;;;5008307;28;20509;-75
2021/07/18 10:32:15;;;;;;;3.67;3.37;;;23.50;99.90;;;;;;4974919;28;20459;-73
2021/07/18 10:34:41;;;;;;;3.70;3.40;;;23.50;99.90;;;;;;5002795;28;20417;-74
2021/07/18 10:37:11;;;;;;;3.43;3.03;;;23.40;99.90;;;;;;5011809;28;20412;-74
2021/07/18 10:39:41;;;;;;;3.33;3.03;;;23.40;99.90;;;;;;4994143;28;20446;-74
2021/07/18 10:42:45;;;;;;;3.27;3.07;;;23.40;99.90;;;;;;4999437;28;20423;-74
2021/07/18 10:45:19;;;;;;;3.30;3.10;;;23.50;99.90;;;;;;4926844;29;20447;-73
2021/07/18 10:48:06;;;;;;;3.30;2.90;;;23.60;99.90;;;;;;4914432;29;20430;-74
2021/07/18 10:50:44;;;;;;;4.80;3.20;;;23.60;99.50;;;;;;4894745;29;20518;-73
2021/07/18 10:53:29;;;;;;;4.20;3.70;;;23.70;99.90;;;;;;4913936;29;20457;-72
2021/07/18 10:55:55;;;;;;;3.20;3.00;;;23.70;99.70;;;;;;4898932;29;20973;-74
2021/07/18 10:58:38;;;;;;;3.53;3.23;;;23.80;99.30;;;;;;4915929;29;20207;-74
2021/07/18 11:01:31;;;;;;;3.83;3.10;;;23.90;99.60;;;;;;4927812;29;20457;-72
2021/07/18 11:03:58;;;;;;;3.85;3.20;;;23.90;99.20;;;;;;4933230;29;20437;-72
2021/07/18 11:06:32;;;;;;;3.17;2.93;;;24.00;98.80;;;;;;4921321;29;20205;-73
2021/07/18 11:09:12;;;;;;;4.50;3.50;;;24.00;98.60;;;;;;4917035;29;20544;-73
2021/07/18 11:11:52;;;;;;;3.60;3.20;;;24.10;99.00;;;;;;4934580;29;20469;-73
2021/07/18 11:14:31;;;;;;;4.80;3.07;;;24.20;98.60;;;;;;4935096;29;20503;-72
2021/07/18 11:17:10;;;;;;;3.50;2.90;;;24.10;98.50;;;;;;5009094;28;20449;-73
2021/07/18 11:19:38;;;;;;;3.43;3.13;;;24.10;98.60;;;;;;5015102;28;20797;-72
2021/07/18 11:22:11;;;;;;;3.53;3.23;;;24.20;98.80;;;;;;5015459;28;20418;-72
2021/07/18 11:24:55;;;;;;;4.27;3.33;;;24.20;98.80;;;;;;5013044;28;20981;-73
2021/07/18 11:27:28;;;;;;;3.30;3.00;;;24.30;98.50;;;;;;5010319;28;20429;-72
2021/07/18 11:29:55;;;;;;;3.80;2.73;;;24.30;98.80;;;;;;4988473;28;20494;-73
2021/07/18 11:32:22;;;;;;;4.13;2.67;;;24.30;97.90;;;;;;4990704;28;20463;-73
2021/07/18 11:34:48;;;;;;;4.40;3.10;;;24.20;98.20;;;;;;4990797;28;20477;-73
2021/07/18 11:37:16;;;;;;;3.60;3.30;;;24.30;98.40;;;;;;4976834;28;20451;-74
2021/07/18 11:39:43;;;;;;;4.00;3.10;;;24.30;98.60;;;;;;4996543;28;20408;-72
2021/07/18 11:42:11;;;;;;;3.00;2.80;;;24.40;98.20;;;;;;5002118;28;20199;-74
2021/07/18 11:44:39;;;;;;;3.60;3.30;;;24.40;97.90;;;;;;5000734;28;20800;-74
2021/07/18 11:47:09;;;;;;;3.55;2.90;;;24.50;97.80;;;;;;5009187;28;20417;-73
2021/07/18 11:49:38;;;;;;;3.90;3.60;;;24.50;98.10;;;;;;5015255;28;20207;-74
2021/07/18 11:52:05;;;;;;;4.80;2.97;;;24.50;98.20;;;;;;5015612;28;20473;-75
2021/07/18 11:54:31;;;;;;;3.70;3.40;;;24.50;98.30;;;;;;4998130;28;20818;-74
2021/07/18 11:56:57;;;;;;;3.80;3.47;;;24.50;98.30;;;;;;5032530;28;20424;-74
2021/07/18 11:59:25;;;;;;;3.57;3.27;;;24.60;97.90;;;;;;5039969;28;20402;-74
2021/07/18 12:01:53;;;;;;;2.80;2.53;;;24.60;97.60;;;;;;5032295;28;20495;-73
2021/07/18 12:04:24;;;;;;;3.87;3.13;;;24.70;97.80;;;;;;4985969;28;20563;-73
2021/07/18 12:06:52;;;;;;;4.00;3.57;;;24.60;97.90;;;;;;4974703;28;20408;-72
2021/07/18 12:09:19;;;;;;;3.73;3.43;;;24.60;97.70;;;;;;4975637;28;20436;-73
2021/07/18 12:11:51;;;;;;;4.90;3.80;;;24.60;98.00;;;;;;4974310;28;20472;-73
2021/07/18 12:14:17;;;;;;;4.97;3.27;;;24.50;98.30;;;;;;4974812;28;20420;-73
2021/07/18 12:16:44;;;;;;;3.73;3.43;;;24.60;98.30;;;;;;4974017;28;20538;-74
2021/07/18 12:19:11;;;;;;;3.83;3.53;;;24.60;98.50;;;;;;4973916;28;20555;-73
2021/07/18 12:21:45;;;;;;;4.37;3.70;;;24.70;98.30;;;;;;4971783;28;20427;-74
2021/07/18 12:24:26;;;;;;;3.60;3.27;;;24.70;98.00;;;;;;4971989;28;20523;-74
2021/07/18 12:26:57;;;;;;;3.50;3.23;;;24.70;98.20;;;;;;4966666;28;20456;-73
2021/07/18 12:29:23;;;;;;;3.43;3.13;;;24.70;98.50;;;;;;4973648;28;20455;-73
2021/07/18 12:31:50;;;;;;;3.50;3.20;;;24.70;98.50;;;;;;4973504;28;20518;-74
2021/07/18 12:34:17;;;;;;;4.03;3.20;;;24.70;98.40;;;;;;4973249;28;20542;-73
2021/07/18 12:37:03;;;;;;;5.03;3.37;;;24.60;98.50;;;;;;4973578;28;20432;-72
2021/07/18 12:39:32;;;;;;;3.83;3.37;;;24.70;98.60;;;;;;4970841;28;20451;-72
2021/07/18 12:41:59;;;;;;;3.97;3.57;;;24.60;98.80;;;;;;4973379;28;20976;-74
2021/07/18 12:44:26;;;;;;;4.13;3.73;;;24.70;98.90;;;;;;4973516;28;20404;-74
2021/07/18 12:47:15;;;;;;;6.60;3.63;;;24.80;99.10;;;;;;4979915;28;21226;-73